Glencoe, Minnesota
Current Conditions -  °F | °C
As of 6:54 AM on Friday 19 Dec 2014 (Local Time) from KGYL Reporting Station
Haze Haze  
Wind Chill: 19°   Ceiling: 1000
Heat Index: 25°   Visibility: 5mi
Dew Point: 24°   Wind: 5mph
Humidity: 96%   Direction: 130°SE
Pressure: 30.22"   Gusts: NA
Location:  44.77°N, 94.15°W
Report Text: KGYL 191254Z AUTO 13004KT 5SM BR OVC010 M04/M05 A3022 RMK AO2 T10411047
Loading
Personal Weather Stations






























Interactive Weather Map New forecast layout! Learn more

10-Day Weather Forecast

Advertisements
Track Severe Weather on mobile